sensor_id;sensor_type;location;lat;lon;timestamp;P1;durP1;ratioP1;P2;durP2;ratioP2
42700;SDS011;28316;49.504;8.526;2023-11-21T00:01:01;2.00;;;0.88;;
42700;SDS011;28316;49.504;8.526;2023-11-21T00:03:29;4.47;;;1.33;;
42700;SDS011;28316;49.504;8.526;2023-11-21T00:05:56;3.60;;;1.33;;
42700;SDS011;28316;49.504;8.526;2023-11-21T00:08:21;6.35;;;1.30;;
42700;SDS011;28316;49.504;8.526;2023-11-21T00:10:47;1.98;;;0.90;;
42700;SDS011;28316;49.504;8.526;2023-11-21T00:13:13;6.18;;;1.27;;
42700;SDS011;28316;49.504;8.526;2023-11-21T00:15:39;1.13;;;0.65;;
42700;SDS011;28316;49.504;8.526;2023-11-21T00:18:05;0.80;;;0.50;;
42700;SDS011;28316;49.504;8.526;2023-11-21T00:20:31;5.28;;;0.90;;
42700;SDS011;28316;49.504;8.526;2023-11-21T00:22:57;2.35;;;0.82;;
42700;SDS011;28316;49.504;8.526;2023-11-21T00:25:24;1.45;;;0.68;;
42700;SDS011;28316;49.504;8.526;2023-11-21T00:27:50;10.80;;;1.10;;
42700;SDS011;28316;49.504;8.526;2023-11-21T00:30:16;0.73;;;0.35;;
42700;SDS011;28316;49.504;8.526;2023-11-21T00:32:42;6.68;;;1.35;;
42700;SDS011;28316;49.504;8.526;2023-11-21T00:35:08;1.83;;;1.10;;
42700;SDS011;28316;49.504;8.526;2023-11-21T00:37:34;1.65;;;0.70;;
42700;SDS011;28316;49.504;8.526;2023-11-21T00:40:00;1.35;;;0.85;;
42700;SDS011;28316;49.504;8.526;2023-11-21T00:42:30;2.08;;;0.70;;
42700;SDS011;28316;49.504;8.526;2023-11-21T00:44:58;10.20;;;1.38;;
42700;SDS011;28316;49.504;8.526;2023-11-21T00:47:24;4.03;;;1.20;;
42700;SDS011;28316;49.504;8.526;2023-11-21T00:49:50;7.93;;;0.80;;
42700;SDS011;28316;49.504;8.526;2023-11-21T00:52:16;8.10;;;0.85;;
42700;SDS011;28316;49.504;8.526;2023-11-21T00:54:42;1.58;;;0.65;;
42700;SDS011;28316;49.504;8.526;2023-11-21T00:57:07;3.15;;;1.30;;
42700;SDS011;28316;49.504;8.526;2023-11-21T00:59:33;0.60;;;0.50;;
42700;SDS011;28316;49.504;8.526;2023-11-21T01:02:00;2.58;;;1.00;;
42700;SDS011;28316;49.504;8.526;2023-11-21T01:04:26;4.00;;;0.98;;
42700;SDS011;28316;49.504;8.526;2023-11-21T01:06:52;1.70;;;0.85;;
42700;SDS011;28316;49.504;8.526;2023-11-21T01:09:18;4.00;;;0.88;;
42700;SDS011;28316;49.504;8.526;2023-11-21T01:11:44;2.45;;;1.35;;
42700;SDS011;28316;49.504;8.526;2023-11-21T01:14:10;1.58;;;0.75;;
42700;SDS011;28316;49.504;8.526;2023-11-21T01:16:36;5.53;;;0.70;;
42700;SDS011;28316;49.504;8.526;2023-11-21T01:19:01;7.88;;;1.45;;
42700;SDS011;28316;49.504;8.526;2023-11-21T01:21:27;2.50;;;1.20;;
42700;SDS011;28316;49.504;8.526;2023-11-21T01:23:53;5.38;;;1.02;;
42700;SDS011;28316;49.504;8.526;2023-11-21T01:26:20;1.38;;;0.50;;
42700;SDS011;28316;49.504;8.526;2023-11-21T01:28:46;1.98;;;1.13;;
42700;SDS011;28316;49.504;8.526;2023-11-21T01:31:14;6.28;;;1.00;;
42700;SDS011;28316;49.504;8.526;2023-11-21T01:33:40;3.70;;;0.95;;
42700;SDS011;28316;49.504;8.526;2023-11-21T01:36:06;11.35;;;1.98;;
42700;SDS011;28316;49.504;8.526;2023-11-21T01:38:33;1.85;;;0.77;;
42700;SDS011;28316;49.504;8.526;2023-11-21T01:40:59;1.08;;;0.68;;
42700;SDS011;28316;49.504;8.526;2023-11-21T01:43:26;3.45;;;0.70;;
42700;SDS011;28316;49.504;8.526;2023-11-21T01:45:53;2.83;;;0.38;;
42700;SDS011;28316;49.504;8.526;2023-11-21T01:48:22;7.28;;;1.00;;
42700;SDS011;28316;49.504;8.526;2023-11-21T01:50:49;4.30;;;1.20;;
42700;SDS011;28316;49.504;8.526;2023-11-21T01:53:15;6.35;;;0.85;;
42700;SDS011;28316;49.504;8.526;2023-11-21T01:55:41;7.72;;;0.98;;
42700;SDS011;28316;49.504;8.526;2023-11-21T01:58:09;1.05;;;0.63;;
42700;SDS011;28316;49.504;8.526;2023-11-21T02:00:38;7.03;;;1.52;;
42700;SDS011;28316;49.504;8.526;2023-11-21T02:03:03;6.78;;;0.77;;
42700;SDS011;28316;49.504;8.526;2023-11-21T02:05:29;2.90;;;1.33;;
42700;SDS011;28316;49.504;8.526;2023-11-21T02:07:55;1.20;;;0.52;;
42700;SDS011;28316;49.504;8.526;2023-11-21T02:10:21;2.65;;;0.90;;
42700;SDS011;28316;49.504;8.526;2023-11-21T02:12:50;9.73;;;1.10;;
42700;SDS011;28316;49.504;8.526;2023-11-21T02:15:16;1.40;;;0.77;;
42700;SDS011;28316;49.504;8.526;2023-11-21T02:17:46;0.65;;;0.50;;
42700;SDS011;28316;49.504;8.526;2023-11-21T02:20:16;2.55;;;0.98;;
42700;SDS011;28316;49.504;8.526;2023-11-21T02:22:52;3.83;;;0.65;;
42700;SDS011;28316;49.504;8.526;2023-11-21T02:25:26;6.47;;;1.17;;
42700;SDS011;28316;49.504;8.526;2023-11-21T02:27:54;7.57;;;1.15;;
42700;SDS011;28316;49.504;8.526;2023-11-21T02:30:21;6.03;;;0.88;;
42700;SDS011;28316;49.504;8.526;2023-11-21T02:32:47;1.27;;;0.50;;
42700;SDS011;28316;49.504;8.526;2023-11-21T02:35:14;1.92;;;0.77;;
42700;SDS011;28316;49.504;8.526;2023-11-21T02:37:41;3.53;;;0.90;;
42700;SDS011;28316;49.504;8.526;2023-11-21T02:40:10;2.85;;;0.63;;
42700;SDS011;28316;49.504;8.526;2023-11-21T02:42:42;1.67;;;0.57;;
42700;SDS011;28316;49.504;8.526;2023-11-21T02:45:09;10.18;;;1.27;;
42700;SDS011;28316;49.504;8.526;2023-11-21T02:47:39;1.65;;;0.82;;
42700;SDS011;28316;49.504;8.526;2023-11-21T02:50:05;4.20;;;0.60;;
42700;SDS011;28316;49.504;8.526;2023-11-21T02:52:33;1.38;;;0.90;;
42700;SDS011;28316;49.504;8.526;2023-11-21T02:55:00;3.10;;;0.75;;
42700;SDS011;28316;49.504;8.526;2023-11-21T02:57:29;0.73;;;0.50;;
42700;SDS011;28316;49.504;8.526;2023-11-21T02:59:55;3.92;;;1.05;;
42700;SDS011;28316;49.504;8.526;2023-11-21T03:02:21;2.30;;;1.00;;
42700;SDS011;28316;49.504;8.526;2023-11-21T03:04:48;13.52;;;0.93;;
42700;SDS011;28316;49.504;8.526;2023-11-21T03:07:14;1.70;;;0.80;;
42700;SDS011;28316;49.504;8.526;2023-11-21T03:09:40;5.28;;;1.23;;
42700;SDS011;28316;49.504;8.526;2023-11-21T03:12:06;4.35;;;1.08;;
42700;SDS011;28316;49.504;8.526;2023-11-21T03:14:33;6.82;;;1.02;;
42700;SDS011;28316;49.504;8.526;2023-11-21T03:16:59;1.02;;;0.50;;
42700;SDS011;28316;49.504;8.526;2023-11-21T03:19:25;2.47;;;0.98;;
42700;SDS011;28316;49.504;8.526;2023-11-21T03:21:51;1.13;;;0.70;;
42700;SDS011;28316;49.504;8.526;2023-11-21T03:24:18;5.57;;;0.57;;
42700;SDS011;28316;49.504;8.526;2023-11-21T03:26:45;8.98;;;1.33;;
42700;SDS011;28316;49.504;8.526;2023-11-21T03:29:11;10.68;;;1.20;;
42700;SDS011;28316;49.504;8.526;2023-11-21T03:31:39;1.02;;;0.75;;
42700;SDS011;28316;49.504;8.526;2023-11-21T03:34:05;3.95;;;1.00;;
42700;SDS011;28316;49.504;8.526;2023-11-21T03:36:31;6.72;;;1.08;;
42700;SDS011;28316;49.504;8.526;2023-11-21T03:38:57;4.65;;;0.82;;
42700;SDS011;28316;49.504;8.526;2023-11-21T03:41:22;3.15;;;1.05;;
42700;SDS011;28316;49.504;8.526;2023-11-21T03:43:48;3.45;;;1.17;;
42700;SDS011;28316;49.504;8.526;2023-11-21T03:46:14;1.88;;;1.15;;
42700;SDS011;28316;49.504;8.526;2023-11-21T03:48:40;1.48;;;0.80;;
42700;SDS011;28316;49.504;8.526;2023-11-21T03:51:07;6.47;;;0.70;;
42700;SDS011;28316;49.504;8.526;2023-11-21T03:53:32;2.83;;;0.70;;
42700;SDS011;28316;49.504;8.526;2023-11-21T03:55:58;6.25;;;1.48;;
42700;SDS011;28316;49.504;8.526;2023-11-21T03:58:26;1.00;;;0.60;;
42700;SDS011;28316;49.504;8.526;2023-11-21T04:00:52;0.98;;;0.70;;
42700;SDS011;28316;49.504;8.526;2023-11-21T04:03:18;1.45;;;0.75;;
42700;SDS011;28316;49.504;8.526;2023-11-21T04:05:44;0.55;;;0.43;;
42700;SDS011;28316;49.504;8.526;2023-11-21T04:08:10;2.90;;;0.98;;
42700;SDS011;28316;49.504;8.526;2023-11-21T04:10:36;3.90;;;0.98;;
42700;SDS011;28316;49.504;8.526;2023-11-21T04:13:04;5.10;;;1.48;;
42700;SDS011;28316;49.504;8.526;2023-11-21T04:15:31;0.90;;;0.73;;
42700;SDS011;28316;49.504;8.526;2023-11-21T04:17:58;3.40;;;1.33;;
42700;SDS011;28316;49.504;8.526;2023-11-21T04:20:24;0.93;;;0.77;;
42700;SDS011;28316;49.504;8.526;2023-11-21T04:22:50;2.70;;;0.98;;
42700;SDS011;28316;49.504;8.526;2023-11-21T04:25:16;1.42;;;0.95;;
42700;SDS011;28316;49.504;8.526;2023-11-21T04:27:43;2.17;;;1.10;;
42700;SDS011;28316;49.504;8.526;2023-11-21T04:30:10;2.88;;;1.10;;
42700;SDS011;28316;49.504;8.526;2023-11-21T04:32:39;1.80;;;0.77;;
42700;SDS011;28316;49.504;8.526;2023-11-21T04:35:04;2.28;;;0.88;;
42700;SDS011;28316;49.504;8.526;2023-11-21T04:37:31;3.10;;;1.10;;
42700;SDS011;28316;49.504;8.526;2023-11-21T04:39:56;5.07;;;0.98;;
42700;SDS011;28316;49.504;8.526;2023-11-21T04:42:22;5.35;;;0.93;;
42700;SDS011;28316;49.504;8.526;2023-11-21T04:44:48;0.70;;;0.65;;
42700;SDS011;28316;49.504;8.526;2023-11-21T04:47:14;1.90;;;0.60;;
42700;SDS011;28316;49.504;8.526;2023-11-21T04:49:43;2.25;;;1.38;;
42700;SDS011;28316;49.504;8.526;2023-11-21T04:52:11;3.55;;;1.20;;
42700;SDS011;28316;49.504;8.526;2023-11-21T04:54:37;2.58;;;0.93;;
42700;SDS011;28316;49.504;8.526;2023-11-21T04:57:04;4.57;;;1.00;;
42700;SDS011;28316;49.504;8.526;2023-11-21T04:59:32;1.67;;;0.95;;
42700;SDS011;28316;49.504;8.526;2023-11-21T05:01:59;5.82;;;1.00;;
42700;SDS011;28316;49.504;8.526;2023-11-21T05:04:28;3.42;;;0.93;;
42700;SDS011;28316;49.504;8.526;2023-11-21T05:06:53;1.80;;;0.90;;
42700;SDS011;28316;49.504;8.526;2023-11-21T05:09:19;1.17;;;0.68;;
42700;SDS011;28316;49.504;8.526;2023-11-21T05:11:47;1.33;;;1.15;;
42700;SDS011;28316;49.504;8.526;2023-11-21T05:14:13;1.45;;;0.60;;
42700;SDS011;28316;49.504;8.526;2023-11-21T05:16:39;4.00;;;0.70;;
42700;SDS011;28316;49.504;8.526;2023-11-21T05:19:04;1.55;;;0.82;;
42700;SDS011;28316;49.504;8.526;2023-11-21T05:21:31;1.17;;;0.88;;
42700;SDS011;28316;49.504;8.526;2023-11-21T05:23:57;1.58;;;0.70;;
42700;SDS011;28316;49.504;8.526;2023-11-21T05:26:23;13.52;;;3.13;;
42700;SDS011;28316;49.504;8.526;2023-11-21T05:28:49;7.97;;;3.45;;
42700;SDS011;28316;49.504;8.526;2023-11-21T05:31:15;7.32;;;2.85;;
42700;SDS011;28316;49.504;8.526;2023-11-21T05:33:41;5.00;;;0.93;;
42700;SDS011;28316;49.504;8.526;2023-11-21T05:36:07;2.22;;;0.75;;
42700;SDS011;28316;49.504;8.526;2023-11-21T05:38:35;4.13;;;1.42;;
42700;SDS011;28316;49.504;8.526;2023-11-21T05:41:01;6.50;;;3.00;;
42700;SDS011;28316;49.504;8.526;2023-11-21T05:43:28;7.57;;;1.40;;
42700;SDS011;28316;49.504;8.526;2023-11-21T05:45:55;3.75;;;2.08;;
42700;SDS011;28316;49.504;8.526;2023-11-21T05:48:21;2.33;;;1.25;;
42700;SDS011;28316;49.504;8.526;2023-11-21T05:50:48;2.53;;;1.48;;
42700;SDS011;28316;49.504;8.526;2023-11-21T05:53:15;6.57;;;1.52;;
42700;SDS011;28316;49.504;8.526;2023-11-21T05:55:41;13.57;;;4.22;;
42700;SDS011;28316;49.504;8.526;2023-11-21T05:58:07;6.80;;;3.10;;
42700;SDS011;28316;49.504;8.526;2023-11-21T06:00:33;4.63;;;1.80;;
42700;SDS011;28316;49.504;8.526;2023-11-21T06:02:59;7.70;;;2.03;;
42700;SDS011;28316;49.504;8.526;2023-11-21T06:05:26;4.32;;;2.35;;
42700;SDS011;28316;49.504;8.526;2023-11-21T06:07:52;3.40;;;1.50;;
42700;SDS011;28316;49.504;8.526;2023-11-21T06:10:20;3.65;;;2.20;;
42700;SDS011;28316;49.504;8.526;2023-11-21T06:12:47;9.05;;;1.90;;
42700;SDS011;28316;49.504;8.526;2023-11-21T06:15:13;5.00;;;2.40;;
42700;SDS011;28316;49.504;8.526;2023-11-21T06:17:39;5.63;;;2.47;;
42700;SDS011;28316;49.504;8.526;2023-11-21T06:20:07;4.15;;;2.50;;
42700;SDS011;28316;49.504;8.526;2023-11-21T06:22:38;4.85;;;2.22;;
42700;SDS011;28316;49.504;8.526;2023-11-21T06:25:05;4.88;;;2.22;;
42700;SDS011;28316;49.504;8.526;2023-11-21T06:27:38;9.13;;;2.78;;
42700;SDS011;28316;49.504;8.526;2023-11-21T06:30:08;5.90;;;2.25;;
42700;SDS011;28316;49.504;8.526;2023-11-21T06:32:35;8.20;;;3.45;;
42700;SDS011;28316;49.504;8.526;2023-11-21T06:35:02;9.45;;;3.03;;
42700;SDS011;28316;49.504;8.526;2023-11-21T06:37:29;7.82;;;3.28;;
42700;SDS011;28316;49.504;8.526;2023-11-21T06:39:57;5.25;;;2.38;;
42700;SDS011;28316;49.504;8.526;2023-11-21T06:42:24;5.50;;;2.63;;
42700;SDS011;28316;49.504;8.526;2023-11-21T06:44:50;6.45;;;3.50;;
42700;SDS011;28316;49.504;8.526;2023-11-21T06:47:17;7.70;;;3.75;;
42700;SDS011;28316;49.504;8.526;2023-11-21T06:49:45;7.40;;;3.38;;
42700;SDS011;28316;49.504;8.526;2023-11-21T06:52:13;5.65;;;2.97;;
42700;SDS011;28316;49.504;8.526;2023-11-21T06:54:39;4.28;;;2.60;;
42700;SDS011;28316;49.504;8.526;2023-11-21T06:57:05;7.05;;;3.33;;
42700;SDS011;28316;49.504;8.526;2023-11-21T06:59:30;9.75;;;3.78;;
42700;SDS011;28316;49.504;8.526;2023-11-21T07:01:56;6.35;;;3.08;;
42700;SDS011;28316;49.504;8.526;2023-11-21T07:04:22;6.78;;;3.28;;
42700;SDS011;28316;49.504;8.526;2023-11-21T07:06:50;7.30;;;3.60;;
42700;SDS011;28316;49.504;8.526;2023-11-21T07:09:19;9.60;;;2.45;;
42700;SDS011;28316;49.504;8.526;2023-11-21T07:14:17;6.30;;;3.08;;
42700;SDS011;28316;49.504;8.526;2023-11-21T07:16:44;5.63;;;3.40;;
42700;SDS011;28316;49.504;8.526;2023-11-21T07:19:11;10.70;;;3.65;;
42700;SDS011;28316;49.504;8.526;2023-11-21T07:21:38;6.55;;;3.10;;
42700;SDS011;28316;49.504;8.526;2023-11-21T07:24:04;7.35;;;3.58;;
42700;SDS011;28316;49.504;8.526;2023-11-21T07:26:32;6.47;;;3.45;;
42700;SDS011;28316;49.504;8.526;2023-11-21T07:29:00;7.22;;;3.35;;
42700;SDS011;28316;49.504;8.526;2023-11-21T07:31:27;3.85;;;2.10;;
42700;SDS011;28316;49.504;8.526;2023-11-21T07:33:54;6.20;;;3.35;;
42700;SDS011;28316;49.504;8.526;2023-11-21T07:36:22;4.60;;;2.70;;
42700;SDS011;28316;49.504;8.526;2023-11-21T07:38:48;5.82;;;2.40;;
42700;SDS011;28316;49.504;8.526;2023-11-21T07:41:15;16.83;;;4.63;;
42700;SDS011;28316;49.504;8.526;2023-11-21T07:43:42;5.82;;;2.88;;
42700;SDS011;28316;49.504;8.526;2023-11-21T07:46:09;6.53;;;2.85;;
42700;SDS011;28316;49.504;8.526;2023-11-21T07:48:37;6.35;;;3.53;;
42700;SDS011;28316;49.504;8.526;2023-11-21T07:51:07;4.82;;;2.25;;
42700;SDS011;28316;49.504;8.526;2023-11-21T07:53:35;5.22;;;2.35;;
42700;SDS011;28316;49.504;8.526;2023-11-21T07:56:05;4.10;;;2.42;;
42700;SDS011;28316;49.504;8.526;2023-11-21T07:58:33;3.55;;;2.03;;
42700;SDS011;28316;49.504;8.526;2023-11-21T08:01:00;3.08;;;1.52;;
42700;SDS011;28316;49.504;8.526;2023-11-21T08:03:27;3.75;;;2.17;;
42700;SDS011;28316;49.504;8.526;2023-11-21T08:05:55;3.38;;;1.80;;
42700;SDS011;28316;49.504;8.526;2023-11-21T08:08:22;4.22;;;2.35;;
42700;SDS011;28316;49.504;8.526;2023-11-21T08:10:48;4.13;;;1.98;;
42700;SDS011;28316;49.504;8.526;2023-11-21T08:13:21;4.65;;;2.33;;
42700;SDS011;28316;49.504;8.526;2023-11-21T08:15:48;3.85;;;1.73;;
42700;SDS011;28316;49.504;8.526;2023-11-21T08:18:14;3.20;;;1.60;;
42700;SDS011;28316;49.504;8.526;2023-11-21T08:20:42;5.93;;;1.92;;
42700;SDS011;28316;49.504;8.526;2023-11-21T08:23:13;3.30;;;1.70;;
42700;SDS011;28316;49.504;8.526;2023-11-21T08:25:41;4.32;;;1.92;;
42700;SDS011;28316;49.504;8.526;2023-11-21T08:28:08;2.90;;;1.40;;
42700;SDS011;28316;49.504;8.526;2023-11-21T08:30:33;3.40;;;1.67;;
42700;SDS011;28316;49.504;8.526;2023-11-21T08:33:00;3.72;;;1.83;;
42700;SDS011;28316;49.504;8.526;2023-11-21T08:35:26;4.35;;;1.98;;
42700;SDS011;28316;49.504;8.526;2023-11-21T08:37:51;4.07;;;1.77;;
42700;SDS011;28316;49.504;8.526;2023-11-21T08:40:20;4.18;;;2.15;;
42700;SDS011;28316;49.504;8.526;2023-11-21T08:42:47;2.67;;;1.75;;
42700;SDS011;28316;49.504;8.526;2023-11-21T08:45:16;4.00;;;2.13;;
42700;SDS011;28316;49.504;8.526;2023-11-21T08:47:42;4.00;;;1.30;;
42700;SDS011;28316;49.504;8.526;2023-11-21T08:50:12;3.55;;;1.45;;
42700;SDS011;28316;49.504;8.526;2023-11-21T08:52:38;2.60;;;1.30;;
42700;SDS011;28316;49.504;8.526;2023-11-21T08:55:05;1.70;;;1.17;;
42700;SDS011;28316;49.504;8.526;2023-11-21T08:57:37;4.63;;;0.88;;
42700;SDS011;28316;49.504;8.526;2023-11-21T09:00:06;1.13;;;0.70;;
42700;SDS011;28316;49.504;8.526;2023-11-21T09:02:36;0.63;;;0.43;;
42700;SDS011;28316;49.504;8.526;2023-11-21T09:05:11;0.90;;;0.73;;
42700;SDS011;28316;49.504;8.526;2023-11-21T09:07:39;0.63;;;0.32;;
42700;SDS011;28316;49.504;8.526;2023-11-21T09:10:06;0.55;;;0.47;;
42700;SDS011;28316;49.504;8.526;2023-11-21T09:12:34;2.00;;;0.70;;
42700;SDS011;28316;49.504;8.526;2023-11-21T09:15:02;0.98;;;0.57;;
42700;SDS011;28316;49.504;8.526;2023-11-21T09:17:34;1.25;;;0.57;;
42700;SDS011;28316;49.504;8.526;2023-11-21T09:20:00;1.85;;;0.75;;
42700;SDS011;28316;49.504;8.526;2023-11-21T09:22:28;0.88;;;0.68;;
42700;SDS011;28316;49.504;8.526;2023-11-21T09:24:55;2.55;;;1.25;;
42700;SDS011;28316;49.504;8.526;2023-11-21T09:27:22;0.88;;;0.65;;
42700;SDS011;28316;49.504;8.526;2023-11-21T09:29:48;1.33;;;0.70;;
42700;SDS011;28316;49.504;8.526;2023-11-21T09:32:14;3.67;;;1.60;;
42700;SDS011;28316;49.504;8.526;2023-11-21T09:34:41;3.95;;;1.13;;
42700;SDS011;28316;49.504;8.526;2023-11-21T09:37:07;2.55;;;1.27;;
42700;SDS011;28316;49.504;8.526;2023-11-21T09:39:33;3.13;;;1.35;;
42700;SDS011;28316;49.504;8.526;2023-11-21T09:47:38;3.30;;;2.10;;
42700;SDS011;28316;49.504;8.526;2023-11-21T09:50:04;3.95;;;1.98;;
42700;SDS011;28316;49.504;8.526;2023-11-21T09:52:37;3.60;;;1.92;;
42700;SDS011;28316;49.504;8.526;2023-11-21T09:55:24;4.63;;;1.70;;
42700;SDS011;28316;49.504;8.526;2023-11-21T09:57:56;2.60;;;1.77;;
42700;SDS011;28316;49.504;8.526;2023-11-21T10:00:23;3.78;;;1.98;;
42700;SDS011;28316;49.504;8.526;2023-11-21T10:02:49;3.97;;;2.08;;
42700;SDS011;28316;49.504;8.526;2023-11-21T10:05:16;4.57;;;2.13;;
42700;SDS011;28316;49.504;8.526;2023-11-21T10:07:45;5.88;;;2.47;;
42700;SDS011;28316;49.504;8.526;2023-11-21T10:10:12;7.10;;;2.75;;
42700;SDS011;28316;49.504;8.526;2023-11-21T10:12:42;4.68;;;2.47;;
42700;SDS011;28316;49.504;8.526;2023-11-21T10:15:13;7.45;;;3.45;;
42700;SDS011;28316;49.504;8.526;2023-11-21T10:17:41;5.97;;;2.53;;
42700;SDS011;28316;49.504;8.526;2023-11-21T10:20:13;4.93;;;2.20;;
42700;SDS011;28316;49.504;8.526;2023-11-21T10:22:40;6.97;;;3.45;;
42700;SDS011;28316;49.504;8.526;2023-11-21T10:25:07;6.93;;;3.13;;
42700;SDS011;28316;49.504;8.526;2023-11-21T10:27:39;9.15;;;3.03;;
42700;SDS011;28316;49.504;8.526;2023-11-21T10:30:06;7.60;;;4.03;;
42700;SDS011;28316;49.504;8.526;2023-11-21T10:32:37;7.90;;;3.23;;
42700;SDS011;28316;49.504;8.526;2023-11-21T10:35:05;13.52;;;2.80;;
42700;SDS011;28316;49.504;8.526;2023-11-21T10:37:35;7.72;;;2.88;;
42700;SDS011;28316;49.504;8.526;2023-11-21T10:40:11;6.75;;;3.15;;
42700;SDS011;28316;49.504;8.526;2023-11-21T10:42:40;8.15;;;3.13;;
42700;SDS011;28316;49.504;8.526;2023-11-21T10:45:07;8.27;;;2.90;;
42700;SDS011;28316;49.504;8.526;2023-11-21T10:47:40;7.82;;;3.20;;
42700;SDS011;28316;49.504;8.526;2023-11-21T10:50:07;9.88;;;3.50;;
42700;SDS011;28316;49.504;8.526;2023-11-21T10:52:37;6.28;;;2.90;;
42700;SDS011;28316;49.504;8.526;2023-11-21T10:55:18;4.90;;;2.53;;
42700;SDS011;28316;49.504;8.526;2023-11-21T10:57:48;10.48;;;2.67;;
42700;SDS011;28316;49.504;8.526;2023-11-21T11:00:17;10.20;;;2.67;;
42700;SDS011;28316;49.504;8.526;2023-11-21T11:02:53;5.15;;;3.13;;
42700;SDS011;28316;49.504;8.526;2023-11-21T11:05:20;4.82;;;2.33;;
42700;SDS011;28316;49.504;8.526;2023-11-21T11:07:56;6.78;;;3.00;;
42700;SDS011;28316;49.504;8.526;2023-11-21T11:10:31;7.82;;;3.53;;
42700;SDS011;28316;49.504;8.526;2023-11-21T11:12:57;6.70;;;2.30;;
42700;SDS011;28316;49.504;8.526;2023-11-21T11:15:25;8.13;;;3.22;;
42700;SDS011;28316;49.504;8.526;2023-11-21T11:17:52;9.98;;;3.42;;
42700;SDS011;28316;49.504;8.526;2023-11-21T11:20:22;3.88;;;2.22;;
42700;SDS011;28316;49.504;8.526;2023-11-21T11:25:34;3.28;;;1.90;;
42700;SDS011;28316;49.504;8.526;2023-11-21T11:28:20;4.80;;;2.03;;
42700;SDS011;28316;49.504;8.526;2023-11-21T11:30:56;3.90;;;2.00;;
42700;SDS011;28316;49.504;8.526;2023-11-21T11:36:40;4.00;;;2.33;;
42700;SDS011;28316;49.504;8.526;2023-11-21T11:39:29;5.72;;;3.45;;
42700;SDS011;28316;49.504;8.526;2023-11-21T11:42:12;3.90;;;1.90;;
42700;SDS011;28316;49.504;8.526;2023-11-21T11:47:18;5.18;;;1.92;;
42700;SDS011;28316;49.504;8.526;2023-11-21T11:50:10;6.00;;;2.75;;
42700;SDS011;28316;49.504;8.526;2023-11-21T11:52:47;8.70;;;2.55;;
42700;SDS011;28316;49.504;8.526;2023-11-21T11:55:20;6.80;;;2.58;;
42700;SDS011;28316;49.504;8.526;2023-11-21T11:57:52;4.00;;;2.00;;
42700;SDS011;28316;49.504;8.526;2023-11-21T12:02:56;4.32;;;2.03;;
42700;SDS011;28316;49.504;8.526;2023-11-21T12:05:24;7.55;;;1.92;;
42700;SDS011;28316;49.504;8.526;2023-11-21T12:07:56;10.75;;;2.92;;
42700;SDS011;28316;49.504;8.526;2023-11-21T12:10:23;5.47;;;2.70;;
42700;SDS011;28316;49.504;8.526;2023-11-21T12:12:52;5.07;;;2.63;;
42700;SDS011;28316;49.504;8.526;2023-11-21T12:15:20;3.95;;;2.28;;
42700;SDS011;28316;49.504;8.526;2023-11-21T12:17:47;4.15;;;2.10;;
42700;SDS011;28316;49.504;8.526;2023-11-21T12:20:15;3.47;;;1.70;;
42700;SDS011;28316;49.504;8.526;2023-11-21T12:25:24;4.65;;;1.67;;
42700;SDS011;28316;49.504;8.526;2023-11-21T12:27:54;6.22;;;2.08;;
42700;SDS011;28316;49.504;8.526;2023-11-21T12:30:23;1.92;;;0.93;;
42700;SDS011;28316;49.504;8.526;2023-11-21T12:32:55;2.38;;;1.35;;
42700;SDS011;28316;49.504;8.526;2023-11-21T12:35:22;3.20;;;1.60;;
42700;SDS011;28316;49.504;8.526;2023-11-21T12:37:52;6.00;;;1.60;;
42700;SDS011;28316;49.504;8.526;2023-11-21T12:40:19;3.13;;;1.33;;
42700;SDS011;28316;49.504;8.526;2023-11-21T12:42:48;4.05;;;2.08;;
42700;SDS011;28316;49.504;8.526;2023-11-21T12:45:26;2.88;;;1.38;;
42700;SDS011;28316;49.504;8.526;2023-11-21T12:47:58;3.17;;;1.05;;
42700;SDS011;28316;49.504;8.526;2023-11-21T12:50:29;7.10;;;1.85;;
42700;SDS011;28316;49.504;8.526;2023-11-21T12:55:35;1.63;;;0.90;;
42700;SDS011;28316;49.504;8.526;2023-11-21T12:58:02;1.38;;;0.80;;
42700;SDS011;28316;49.504;8.526;2023-11-21T13:03:10;3.13;;;2.00;;
42700;SDS011;28316;49.504;8.526;2023-11-21T13:05:41;2.53;;;1.02;;
42700;SDS011;28316;49.504;8.526;2023-11-21T13:08:12;3.35;;;1.60;;
42700;SDS011;28316;49.504;8.526;2023-11-21T13:10:39;2.67;;;1.25;;
42700;SDS011;28316;49.504;8.526;2023-11-21T13:13:08;2.10;;;0.90;;
42700;SDS011;28316;49.504;8.526;2023-11-21T13:15:39;1.17;;;0.80;;
42700;SDS011;28316;49.504;8.526;2023-11-21T13:18:08;2.30;;;1.27;;
42700;SDS011;28316;49.504;8.526;2023-11-21T13:20:36;5.32;;;1.23;;
42700;SDS011;28316;49.504;8.526;2023-11-21T13:23:06;6.90;;;1.35;;
42700;SDS011;28316;49.504;8.526;2023-11-21T13:25:33;2.97;;;1.10;;
42700;SDS011;28316;49.504;8.526;2023-11-21T13:28:00;2.45;;;1.13;;
42700;SDS011;28316;49.504;8.526;2023-11-21T13:30:26;6.25;;;1.90;;
42700;SDS011;28316;49.504;8.526;2023-11-21T13:32:59;3.42;;;1.40;;
42700;SDS011;28316;49.504;8.526;2023-11-21T13:35:31;4.35;;;1.42;;
42700;SDS011;28316;49.504;8.526;2023-11-21T13:38:11;3.20;;;1.20;;
42700;SDS011;28316;49.504;8.526;2023-11-21T13:40:42;1.85;;;0.95;;
42700;SDS011;28316;49.504;8.526;2023-11-21T13:43:21;1.42;;;0.95;;
42700;SDS011;28316;49.504;8.526;2023-11-21T13:45:51;2.17;;;1.00;;
42700;SDS011;28316;49.504;8.526;2023-11-21T13:48:28;1.52;;;0.95;;
42700;SDS011;28316;49.504;8.526;2023-11-21T13:51:02;2.42;;;1.10;;
42700;SDS011;28316;49.504;8.526;2023-11-21T13:53:45;3.15;;;1.13;;
42700;SDS011;28316;49.504;8.526;2023-11-21T13:56:17;6.95;;;1.48;;
42700;SDS011;28316;49.504;8.526;2023-11-21T13:58:50;5.57;;;1.38;;
42700;SDS011;28316;49.504;8.526;2023-11-21T14:01:20;2.72;;;1.55;;
42700;SDS011;28316;49.504;8.526;2023-11-21T14:04:03;6.87;;;1.20;;
42700;SDS011;28316;49.504;8.526;2023-11-21T14:06:38;1.88;;;0.90;;
42700;SDS011;28316;49.504;8.526;2023-11-21T14:09:13;7.25;;;1.58;;
42700;SDS011;28316;49.504;8.526;2023-11-21T14:12:00;2.65;;;1.42;;
42700;SDS011;28316;49.504;8.526;2023-11-21T14:14:31;5.18;;;1.33;;
42700;SDS011;28316;49.504;8.526;2023-11-21T14:16:57;1.67;;;0.85;;
42700;SDS011;28316;49.504;8.526;2023-11-21T14:19:23;5.22;;;2.20;;
42700;SDS011;28316;49.504;8.526;2023-11-21T14:21:56;2.42;;;0.90;;
42700;SDS011;28316;49.504;8.526;2023-11-21T14:24:22;1.88;;;1.05;;
42700;SDS011;28316;49.504;8.526;2023-11-21T14:26:49;5.30;;;1.23;;
42700;SDS011;28316;49.504;8.526;2023-11-21T14:29:16;3.40;;;1.60;;
42700;SDS011;28316;49.504;8.526;2023-11-21T14:31:45;4.43;;;1.50;;
42700;SDS011;28316;49.504;8.526;2023-11-21T14:34:12;3.05;;;1.33;;
42700;SDS011;28316;49.504;8.526;2023-11-21T14:36:40;2.17;;;1.35;;
42700;SDS011;28316;49.504;8.526;2023-11-21T14:39:06;7.97;;;1.13;;
42700;SDS011;28316;49.504;8.526;2023-11-21T14:41:45;2.95;;;1.20;;
42700;SDS011;28316;49.504;8.526;2023-11-21T14:44:11;3.00;;;1.48;;
42700;SDS011;28316;49.504;8.526;2023-11-21T14:46:38;3.08;;;1.40;;
42700;SDS011;28316;49.504;8.526;2023-11-21T14:49:08;2.80;;;1.20;;
42700;SDS011;28316;49.504;8.526;2023-11-21T14:51:52;3.25;;;1.42;;
42700;SDS011;28316;49.504;8.526;2023-11-21T14:54:34;7.25;;;1.88;;
42700;SDS011;28316;49.504;8.526;2023-11-21T14:57:09;5.00;;;2.05;;
42700;SDS011;28316;49.504;8.526;2023-11-21T14:59:43;10.05;;;2.00;;
42700;SDS011;28316;49.504;8.526;2023-11-21T15:02:20;5.35;;;2.28;;
42700;SDS011;28316;49.504;8.526;2023-11-21T15:04:47;11.30;;;2.42;;
42700;SDS011;28316;49.504;8.526;2023-11-21T15:07:17;7.65;;;2.20;;
42700;SDS011;28316;49.504;8.526;2023-11-21T15:09:43;4.38;;;1.90;;
42700;SDS011;28316;49.504;8.526;2023-11-21T15:12:10;5.68;;;1.45;;
42700;SDS011;28316;49.504;8.526;2023-11-21T15:14:47;4.68;;;1.58;;
42700;SDS011;28316;49.504;8.526;2023-11-21T15:17:18;2.35;;;1.30;;
42700;SDS011;28316;49.504;8.526;2023-11-21T15:19:50;6.45;;;1.60;;
42700;SDS011;28316;49.504;8.526;2023-11-21T15:22:17;4.47;;;1.67;;